Time;durP1;ratioP1;P1;durP2;ratioP2;P2;SDS_P1;SDS_P2;PMS_P1;PMS_P2;Temp;Humidity;BMP_temperature;BMP_pressure;BME280_temperature;BME280_humidity;BME280_pressure;Samples;Min_cycle;Max_cycle;Signal;HPM_P1;HPM_P2
2021/08/10 00:01:07;0.00;0.00;0.62;0.00;0.00;0.62;2.07;1.73;;;26.50;34.20;;;;;;2253235;61;20387;-56
2021/08/10 00:03:52;0.00;0.00;0.62;0.00;0.00;0.62;2.40;1.70;;;26.50;34.20;;;;;;2253440;61;20363;-54
2021/08/10 00:06:38;0.00;0.00;0.62;0.00;0.00;0.62;2.20;1.73;;;26.50;34.90;;;;;;2253255;61;20367;-53
2021/08/10 00:09:23;0.00;0.00;0.62;0.00;0.00;0.62;2.87;1.90;;;26.50;34.30;;;;;;2253606;61;20608;-55
2021/08/10 00:12:08;0.00;0.00;0.62;0.00;0.00;0.62;3.30;2.10;;;26.50;34.30;;;;;;2253260;61;20383;-55
2021/08/10 00:14:53;0.00;0.00;0.62;0.00;0.00;0.62;2.63;1.70;;;26.50;34.30;;;;;;2252889;61;20395;-52
2021/08/10 00:17:38;0.00;0.00;0.62;0.00;0.00;0.62;2.23;1.90;;;26.50;34.30;;;;;;2253709;61;20355;-53
2021/08/10 00:20:23;0.00;0.00;0.62;0.00;0.00;0.62;2.20;1.70;;;26.50;34.40;;;;;;2253084;61;20467;-53
2021/08/10 00:23:09;0.00;0.00;0.62;0.00;0.00;0.62;1.90;1.50;;;26.50;34.40;;;;;;2253258;61;20363;-55
2021/08/10 00:25:54;0.00;0.00;0.62;0.00;0.00;0.62;2.47;2.00;;;26.50;34.40;;;;;;2253587;61;20372;-54
2021/08/10 00:28:39;0.00;0.00;0.62;0.00;0.00;0.62;2.67;1.70;;;26.50;34.40;;;;;;2252992;61;20364;-54
2021/08/10 00:31:23;0.00;0.00;0.62;0.00;0.00;0.62;2.90;1.83;;;26.50;34.40;;;;;;2253537;61;20779;-54
2021/08/10 00:34:07;0.00;0.00;0.62;0.00;0.00;0.62;3.83;2.00;;;26.50;34.40;;;;;;2255619;61;20359;-52
2021/08/10 00:36:52;0.00;0.00;0.62;0.00;0.00;0.62;3.10;2.03;;;26.50;34.40;;;;;;2255545;61;20443;-55
2021/08/10 00:39:38;0.00;0.00;0.62;0.00;0.00;0.62;2.80;1.80;;;26.50;34.40;;;;;;2253012;61;20379;-53
2021/08/10 00:42:23;0.00;0.00;0.62;0.00;0.00;0.62;2.53;1.50;;;26.50;34.40;;;;;;2255637;61;20367;-53
2021/08/10 00:45:10;0.00;0.00;0.62;0.00;0.00;0.62;2.33;2.03;;;26.50;34.40;;;;;;2255580;61;20791;-55
2021/08/10 00:47:56;0.00;0.00;0.62;0.00;0.00;0.62;2.67;1.60;;;26.50;34.40;;;;;;2255938;61;20392;-55
2021/08/10 00:50:44;0.00;0.00;0.62;0.00;0.00;0.62;2.07;1.70;;;26.50;34.40;;;;;;2255143;61;20412;-56
2021/08/10 00:53:29;0.00;0.00;0.62;0.00;0.00;0.62;2.77;2.10;;;26.50;34.40;;;;;;2253534;61;20368;-54
2021/08/10 00:56:15;0.00;0.00;0.62;0.00;0.00;0.62;2.27;1.63;;;26.50;34.50;;;;;;2255686;61;20414;-54
2021/08/10 00:59:03;0.00;0.00;0.62;0.00;0.00;0.62;4.70;2.07;;;26.50;34.50;;;;;;2255346;61;20399;-55
2021/08/10 01:01:54;0.00;0.00;0.62;0.00;0.00;0.62;2.10;1.53;;;26.50;34.60;;;;;;2255765;61;20795;-52
2021/08/10 01:04:39;0.00;0.00;0.62;0.00;0.00;0.62;2.37;1.73;;;26.50;34.60;;;;;;2253088;61;20387;-57
2021/08/10 01:07:35;0.00;0.00;0.62;0.00;0.00;0.62;2.77;1.90;;;26.50;34.70;;;;;;2255512;61;20379;-56
2021/08/10 01:10:27;0.00;0.00;0.62;0.00;0.00;0.62;2.27;1.80;;;26.50;34.70;;;;;;2255771;61;20376;-55
2021/08/10 01:13:22;0.00;0.00;0.62;0.00;0.00;0.62;2.33;1.67;;;26.50;34.70;;;;;;2255555;61;20356;-53
2021/08/10 01:16:19;0.00;0.00;0.62;0.00;0.00;0.62;2.60;1.67;;;26.50;34.70;;;;;;2255929;61;20364;-53
2021/08/10 01:19:33;0.00;0.00;0.62;0.00;0.00;0.62;2.50;1.83;;;26.50;34.80;;;;;;2255244;61;20391;-54
2021/08/10 01:22:21;0.00;0.00;0.62;0.00;0.00;0.62;2.10;1.67;;;26.40;34.70;;;;;;2254435;61;20372;-52
2021/08/10 01:25:21;0.00;0.00;0.62;0.00;0.00;0.62;2.00;1.60;;;26.40;34.70;;;;;;2255972;61;20716;-55
2021/08/10 01:28:32;0.00;0.00;0.62;0.00;0.00;0.62;2.47;1.77;;;26.50;34.80;;;;;;2256197;61;20732;-52
2021/08/10 01:31:25;0.00;0.00;0.62;0.00;0.00;0.62;2.47;1.73;;;26.50;34.80;;;;;;2256429;61;20738;-54
2021/08/10 01:34:30;0.00;0.00;0.62;0.00;0.00;0.62;2.50;1.90;;;26.40;34.70;;;;;;2256171;61;20360;-55
2021/08/10 01:37:25;0.00;0.00;0.62;0.00;0.00;0.62;2.83;2.00;;;26.40;34.70;;;;;;2256304;61;20407;-55
2021/08/10 01:40:13;0.00;0.00;0.62;0.00;0.00;0.62;2.90;2.00;;;26.40;34.70;;;;;;2256279;61;20395;-55
2021/08/10 01:43:08;0.00;0.00;0.62;0.00;0.00;0.62;2.90;1.90;;;26.40;34.70;;;;;;2256026;61;20360;-54
2021/08/10 01:45:56;0.00;0.00;0.62;0.00;0.00;0.62;2.10;1.40;;;26.40;34.70;;;;;;2254037;61;20628;-52
2021/08/10 01:48:44;0.00;0.00;0.62;0.00;0.00;0.62;2.53;1.73;;;26.40;34.70;;;;;;2255987;61;20646;-52
2021/08/10 01:51:31;0.00;0.00;0.62;0.00;0.00;0.62;2.90;1.83;;;26.40;34.70;;;;;;2256171;61;20636;-55
2021/08/10 01:54:17;0.00;0.00;0.62;0.00;0.00;0.62;2.20;1.73;;;26.40;34.70;;;;;;2256174;61;20410;-55
2021/08/10 01:57:02;0.00;0.00;0.62;0.00;0.00;0.62;3.40;2.30;;;26.40;34.70;;;;;;2255714;61;20367;-56
2021/08/10 01:59:55;0.00;0.00;0.62;0.00;0.00;0.62;3.10;1.80;;;26.40;34.70;;;;;;2256221;61;20391;-57
2021/08/10 02:02:41;0.00;0.00;0.62;0.00;0.00;0.62;2.17;1.67;;;26.40;34.70;;;;;;2256035;61;20584;-53
2021/08/10 02:05:43;0.00;0.00;0.62;0.00;0.00;0.62;1.80;1.50;;;26.40;34.70;;;;;;2256055;61;20479;-55
2021/08/10 02:08:33;0.00;0.00;0.62;0.00;0.00;0.62;2.40;1.50;;;26.40;34.60;;;;;;2256246;61;20384;-57
2021/08/10 02:11:24;0.00;0.00;0.62;0.00;0.00;0.62;3.40;2.20;;;26.40;34.60;;;;;;2256017;61;20643;-56
2021/08/10 02:14:12;0.00;0.00;0.62;0.00;0.00;0.62;3.27;2.10;;;26.30;34.60;;;;;;2256091;61;20755;-56
2021/08/10 02:17:01;0.00;0.00;0.62;0.00;0.00;0.62;3.20;2.33;;;26.30;34.60;;;;;;2254046;61;20391;-51
2021/08/10 02:19:50;0.00;0.00;0.62;0.00;0.00;0.62;3.03;1.93;;;26.30;34.60;;;;;;2255910;61;20936;-50
2021/08/10 02:22:36;0.00;0.00;0.62;0.00;0.00;0.62;2.17;1.60;;;26.30;34.60;;;;;;2256325;61;20376;-53
2021/08/10 02:25:25;0.00;0.00;0.62;0.00;0.00;0.62;2.30;1.77;;;26.30;34.60;;;;;;2255941;61;20367;-53
2021/08/10 02:28:20;0.00;0.00;0.62;0.00;0.00;0.62;2.37;1.83;;;26.30;34.60;;;;;;2256029;61;20360;-53
2021/08/10 02:31:09;0.00;0.00;0.62;0.00;0.00;0.62;3.17;2.30;;;26.30;34.60;;;;;;2256304;61;20444;-51
2021/08/10 02:33:57;0.00;0.00;0.62;0.00;0.00;0.62;2.30;1.70;;;26.30;34.50;;;;;;2253465;61;20407;-56
2021/08/10 02:36:43;0.00;0.00;0.62;0.00;0.00;0.62;2.90;2.03;;;26.30;34.60;;;;;;2256087;61;20439;-54
2021/08/10 02:39:30;0.00;0.00;0.62;0.00;0.00;0.62;2.20;1.80;;;26.30;34.50;;;;;;2256005;61;20407;-53
2021/08/10 02:42:17;0.00;0.00;0.62;0.00;0.00;0.62;2.23;1.80;;;26.30;34.60;;;;;;2255893;61;20363;-54
2021/08/10 02:45:05;0.00;0.00;0.62;0.00;0.00;0.62;2.70;2.27;;;26.30;34.60;;;;;;2256218;61;20368;-52
2021/08/10 02:47:51;0.00;0.00;0.62;0.00;0.00;0.62;2.60;2.07;;;26.30;34.60;;;;;;2253591;61;20367;-54
2021/08/10 02:50:39;0.00;0.00;0.62;0.00;0.00;0.62;1.83;1.63;;;26.30;34.60;;;;;;2255775;61;20383;-53
2021/08/10 02:53:24;0.00;0.00;0.62;0.00;0.00;0.62;2.30;1.50;;;26.30;34.60;;;;;;2256361;61;20364;-53
2021/08/10 02:56:22;0.00;0.00;0.62;0.00;0.00;0.62;3.37;2.13;;;26.20;34.50;;;;;;2255993;61;20719;-54
2021/08/10 02:59:14;0.00;0.00;0.62;0.00;0.00;0.62;2.70;2.07;;;26.30;34.60;;;;;;2256051;61;20437;-53
2021/08/10 03:02:06;0.00;0.00;0.62;0.00;0.00;0.62;3.40;2.30;;;26.20;34.60;;;;;;2255826;61;20379;-56
2021/08/10 03:04:56;0.00;0.00;0.62;0.00;0.00;0.62;2.30;1.93;;;26.20;34.60;;;;;;2255796;61;20399;-52
2021/08/10 03:07:47;0.00;0.00;0.62;0.00;0.00;0.62;3.87;2.73;;;26.20;34.60;;;;;;2256184;61;20436;-53
2021/08/10 03:10:34;0.00;0.00;0.62;0.00;0.00;0.62;3.03;1.80;;;26.20;34.70;;;;;;2255785;61;20375;-53
2021/08/10 03:13:22;0.00;0.00;0.62;0.00;0.00;0.62;3.00;2.13;;;26.20;34.70;;;;;;2253586;61;20356;-51
2021/08/10 03:16:09;0.00;0.00;0.62;0.00;0.00;0.62;2.40;1.77;;;26.20;34.60;;;;;;2253850;61;20383;-53
2021/08/10 03:19:00;0.00;0.00;0.62;0.00;0.00;0.62;2.60;2.07;;;26.20;34.70;;;;;;2255656;61;20755;-52
2021/08/10 03:21:45;0.00;0.00;0.62;0.00;0.00;0.62;3.37;2.33;;;26.20;34.70;;;;;;2253791;61;20392;-55
2021/08/10 03:24:32;0.00;0.00;0.62;0.00;0.00;0.62;2.80;1.80;;;26.20;34.70;;;;;;2255727;61;20366;-53
2021/08/10 03:27:17;0.00;0.00;0.62;0.00;0.00;0.62;2.83;1.50;;;26.20;34.70;;;;;;2255780;61;20359;-54
2021/08/10 03:30:05;0.00;0.00;0.62;0.00;0.00;0.62;2.27;1.57;;;26.20;34.70;;;;;;2255953;61;20500;-54
2021/08/10 03:32:51;0.00;0.00;0.62;0.00;0.00;0.62;2.87;1.70;;;26.20;34.70;;;;;;2253472;61;20367;-52
2021/08/10 03:35:38;0.00;0.00;0.62;0.00;0.00;0.62;3.50;2.40;;;26.20;34.70;;;;;;2255838;61;20665;-54
2021/08/10 03:38:25;0.00;0.00;0.62;0.00;0.00;0.62;2.13;1.47;;;26.20;34.80;;;;;;2256098;61;20545;-51
2021/08/10 03:41:12;0.00;0.00;0.62;0.00;0.00;0.62;3.40;1.90;;;26.20;34.80;;;;;;2253321;61;20595;-52
2021/08/10 03:43:59;0.00;0.00;0.62;0.00;0.00;0.62;2.47;1.83;;;26.20;34.80;;;;;;2255953;61;20403;-56
2021/08/10 03:46:46;0.00;0.00;0.62;0.00;0.00;0.62;2.13;1.67;;;26.10;34.70;;;;;;2255671;61;20808;-57
2021/08/10 03:49:31;0.00;0.00;0.62;0.00;0.00;0.62;2.07;1.63;;;26.10;35.50;;;;;;2255573;61;20463;-55
2021/08/10 03:52:17;0.00;0.00;0.62;0.00;0.00;0.62;2.60;2.00;;;26.10;34.80;;;;;;2253690;61;20720;-55
2021/08/10 03:55:03;0.00;0.00;0.62;0.00;0.00;0.62;2.50;1.53;;;26.10;34.80;;;;;;2255676;61;20411;-54
2021/08/10 03:57:49;0.00;0.00;0.62;0.00;0.00;0.62;2.20;1.60;;;26.10;34.80;;;;;;2255739;61;20362;-55
2021/08/10 04:00:37;0.00;0.00;0.62;0.00;0.00;0.62;3.30;2.33;;;26.10;34.90;;;;;;2255856;61;20408;-50
2021/08/10 04:03:24;0.00;0.00;0.62;0.00;0.00;0.62;3.17;1.43;;;26.10;34.90;;;;;;2252843;61;20618;-54
2021/08/10 04:06:12;0.00;0.00;0.62;0.00;0.00;0.62;6.33;1.97;;;26.10;34.90;;;;;;2255979;61;20740;-52
2021/08/10 04:08:59;0.00;0.00;0.62;0.00;0.00;0.62;2.77;1.90;;;26.10;35.00;;;;;;2253197;61;20359;-51
2021/08/10 04:11:45;0.00;0.00;0.62;0.00;0.00;0.62;3.87;1.70;;;26.10;35.00;;;;;;2255649;61;20439;-55
2021/08/10 04:14:39;0.00;0.00;0.62;0.00;0.00;0.62;2.93;2.10;;;26.10;35.00;;;;;;2255982;61;20432;-53
2021/08/10 04:17:26;0.00;0.00;0.62;0.00;0.00;0.62;4.07;1.60;;;26.10;35.00;;;;;;2255662;61;20359;-55
2021/08/10 04:20:13;0.00;0.00;0.62;0.00;0.00;0.62;4.00;1.90;;;26.10;35.10;;;;;;2255394;61;20434;-52
2021/08/10 04:22:59;0.00;0.00;0.62;0.00;0.00;0.62;5.70;2.57;;;26.10;35.00;;;;;;2255934;61;20720;-53
2021/08/10 04:25:44;0.00;0.00;0.62;0.00;0.00;0.62;3.60;2.33;;;26.10;35.00;;;;;;2253180;61;20426;-54
2021/08/10 04:28:29;0.00;0.00;0.62;0.00;0.00;0.62;5.97;2.50;;;26.00;35.00;;;;;;2253072;61;20724;-55
2021/08/10 04:31:15;0.00;0.00;0.62;0.00;0.00;0.62;7.37;3.00;;;26.00;35.00;;;;;;2255542;61;20379;-50
2021/08/10 04:34:00;0.00;0.00;0.62;0.00;0.00;0.62;6.53;2.73;;;26.00;35.00;;;;;;2255657;61;20367;-53
2021/08/10 04:36:46;0.00;0.00;0.62;0.00;0.00;0.62;4.10;3.00;;;26.00;35.00;;;;;;2255896;61;20364;-57
2021/08/10 04:39:31;0.00;0.00;0.62;0.00;0.00;0.62;4.83;2.90;;;26.00;35.00;;;;;;2253100;61;20508;-50
2021/08/10 04:42:17;0.00;0.00;0.62;0.00;0.00;0.62;4.70;3.40;;;26.00;35.00;;;;;;2255618;61;20747;-54
2021/08/10 04:45:03;0.00;0.00;0.62;0.00;0.00;0.62;6.00;3.40;;;26.00;35.00;;;;;;2255761;61;20723;-57
2021/08/10 04:47:52;0.00;0.00;0.62;0.00;0.00;0.62;5.27;3.67;;;26.00;35.00;;;;;;2255216;61;20771;-54
2021/08/10 04:50:37;0.00;0.00;0.62;0.00;0.00;0.62;10.03;3.97;;;26.00;35.10;;;;;;2255694;61;20380;-54
2021/08/10 04:53:25;0.00;0.00;0.62;0.00;0.00;0.62;4.13;2.60;;;26.00;35.10;;;;;;2255526;61;20363;-53
2021/08/10 04:56:09;0.00;0.00;0.62;0.00;0.00;0.62;8.43;4.03;;;26.00;35.10;;;;;;2255475;61;20500;-53
2021/08/10 04:58:54;0.00;0.00;0.62;0.00;0.00;0.62;6.40;3.43;;;26.00;35.10;;;;;;2255756;61;20379;-53
2021/08/10 05:01:39;0.00;0.00;0.62;0.00;0.00;0.62;5.00;3.03;;;26.00;35.00;;;;;;2256281;61;20423;-51
2021/08/10 05:04:24;0.00;0.00;0.62;0.00;0.00;0.62;5.60;2.97;;;26.00;35.00;;;;;;2256264;61;20407;-52
2021/08/10 05:07:10;0.00;0.00;0.62;0.00;0.00;0.62;3.57;2.63;;;26.00;35.00;;;;;;2256502;61;20383;-49
2021/08/10 05:09:57;0.00;0.00;0.62;0.00;0.00;0.62;4.63;2.73;;;25.90;35.00;;;;;;2256033;61;20632;-55
2021/08/10 05:12:41;0.00;0.00;0.62;0.00;0.00;0.62;4.63;2.93;;;25.90;35.00;;;;;;2256597;61;20740;-52
2021/08/10 05:15:30;0.00;0.00;0.62;0.00;0.00;0.62;7.93;2.80;;;26.00;35.10;;;;;;2256244;61;20360;-51
2021/08/10 05:18:14;0.00;0.00;0.62;0.00;0.00;0.62;4.67;2.20;;;25.90;35.00;;;;;;2253864;61;20623;-54
2021/08/10 05:21:00;0.00;0.00;0.62;0.00;0.00;0.62;4.60;2.50;;;25.90;35.00;;;;;;2256436;61;20446;-51
2021/08/10 05:23:47;0.00;0.00;0.62;0.00;0.00;0.62;3.50;2.17;;;25.90;35.00;;;;;;2256138;61;20364;-50
2021/08/10 05:26:33;0.00;0.00;0.62;0.00;0.00;0.62;4.27;2.37;;;25.90;35.00;;;;;;2253852;61;20383;-52
2021/08/10 05:29:19;0.00;0.00;0.62;0.00;0.00;0.62;4.20;2.53;;;25.90;35.00;;;;;;2256412;61;20577;-53
2021/08/10 05:32:04;0.00;0.00;0.62;0.00;0.00;0.62;7.50;1.83;;;25.90;35.00;;;;;;2256035;61;20368;-57
2021/08/10 05:34:50;0.00;0.00;0.62;0.00;0.00;0.62;4.47;2.10;;;25.90;35.00;;;;;;2256468;61;20367;-54
2021/08/10 05:37:35;0.00;0.00;0.62;0.00;0.00;0.62;5.70;2.10;;;25.90;35.00;;;;;;2256178;61;20610;-56
2021/08/10 05:40:20;0.00;0.00;0.62;0.00;0.00;0.62;3.90;1.87;;;25.90;35.00;;;;;;2256003;61;20622;-53
2021/08/10 05:43:09;0.00;0.00;0.62;0.00;0.00;0.62;3.13;1.80;;;25.80;34.80;;;;;;2256410;61;20523;-54
2021/08/10 05:45:54;0.00;0.00;0.62;0.00;0.00;0.62;5.00;2.03;;;25.80;34.90;;;;;;2253377;61;20367;-53
2021/08/10 05:48:39;0.00;0.00;0.62;0.00;0.00;0.62;4.50;1.90;;;25.70;34.90;;;;;;2256066;61;20394;-56
2021/08/10 05:51:26;0.00;0.00;0.62;0.00;0.00;0.62;5.33;2.43;;;25.60;34.90;;;;;;2256461;61;20456;-55
2021/08/10 05:54:13;0.00;0.00;0.62;0.00;0.00;0.62;3.77;2.00;;;25.60;35.00;;;;;;2255815;61;20907;-55
2021/08/10 05:57:01;0.00;0.00;0.62;0.00;0.00;0.62;2.30;1.53;;;25.50;35.10;;;;;;2256437;61;20367;-52
2021/08/10 05:59:47;0.00;0.00;0.62;0.00;0.00;0.62;3.63;1.80;;;25.40;35.10;;;;;;2253183;61;20399;-55
2021/08/10 06:02:34;0.00;0.00;0.62;0.00;0.00;0.62;3.33;2.20;;;25.40;35.20;;;;;;2253702;61;20698;-54
2021/08/10 06:05:19;0.00;0.00;0.62;0.00;0.00;0.62;2.43;1.93;;;25.30;35.30;;;;;;2256257;61;20383;-53
2021/08/10 06:08:04;0.00;0.00;0.62;0.00;0.00;0.62;2.83;1.70;;;25.30;35.40;;;;;;2253286;61;20363;-51
2021/08/10 06:11:01;0.00;0.00;0.62;0.00;0.00;0.62;3.10;1.80;;;25.20;35.40;;;;;;2255901;61;20808;-56
2021/08/10 06:13:47;0.00;0.00;0.62;0.00;0.00;0.62;2.00;1.70;;;25.20;35.60;;;;;;2256385;61;20419;-54
2021/08/10 06:16:33;0.00;0.00;0.62;0.00;0.00;0.62;4.30;1.70;;;25.10;35.60;;;;;;2256018;61;20406;-51
2021/08/10 06:19:25;0.00;0.00;0.62;0.00;0.00;0.62;3.30;2.40;;;25.10;35.80;;;;;;2256193;61;20383;-53
2021/08/10 06:22:09;0.00;0.00;0.62;0.00;0.00;0.62;2.87;2.20;;;25.00;35.80;;;;;;2256001;61;20379;-53
2021/08/10 06:24:54;0.00;0.00;0.62;0.00;0.00;0.62;2.87;1.90;;;25.00;36.00;;;;;;2255841;61;20735;-55
2021/08/10 06:27:42;0.00;0.00;0.62;0.00;0.00;0.62;2.87;1.83;;;25.00;36.10;;;;;;2253988;61;20436;-55
2021/08/10 06:30:27;0.00;0.00;0.62;0.00;0.00;0.62;2.50;2.00;;;24.90;36.10;;;;;;2255827;61;20379;-55
2021/08/10 06:33:12;0.00;0.00;0.62;0.00;0.00;0.62;2.60;1.87;;;24.80;36.20;;;;;;2256056;61;20583;-53
2021/08/10 06:35:57;0.00;0.00;0.62;0.00;0.00;0.62;2.87;2.17;;;24.80;36.30;;;;;;2256323;61;20368;-53
2021/08/10 06:38:45;0.00;0.00;0.62;0.00;0.00;0.62;3.50;2.30;;;24.70;36.30;;;;;;2255858;61;20701;-55
2021/08/10 06:41:30;0.00;0.00;0.62;0.00;0.00;0.62;4.60;2.50;;;24.70;36.40;;;;;;2256265;61;20415;-54
2021/08/10 06:44:23;0.00;0.00;0.62;0.00;0.00;0.62;5.20;2.10;;;24.60;36.50;;;;;;2255857;61;20464;-55
2021/08/10 06:47:13;0.00;0.00;0.62;0.00;0.00;0.62;4.13;2.00;;;24.60;36.50;;;;;;2255909;61;20363;-53
2021/08/10 06:49:59;0.00;0.00;0.62;0.00;0.00;0.62;3.33;2.30;;;24.60;36.70;;;;;;2256130;61;20383;-53
2021/08/10 06:52:47;0.00;0.00;0.62;0.00;0.00;0.62;2.87;2.00;;;24.50;36.80;;;;;;2255972;61;20372;-54
2021/08/10 06:55:35;0.00;0.00;0.62;0.00;0.00;0.62;3.00;1.87;;;24.50;36.90;;;;;;2255965;61;20368;-52
2021/08/10 06:58:25;0.00;0.00;0.62;0.00;0.00;0.62;5.17;2.57;;;24.40;36.90;;;;;;2256164;61;20407;-57
2021/08/10 07:01:10;0.00;0.00;0.62;0.00;0.00;0.62;2.27;1.80;;;24.40;37.10;;;;;;2255775;61;20454;-53
2021/08/10 07:03:57;0.00;0.00;0.62;0.00;0.00;0.62;3.50;2.13;;;24.30;37.20;;;;;;2256153;61;20363;-54
2021/08/10 07:06:44;0.00;0.00;0.62;0.00;0.00;0.62;3.17;2.17;;;24.30;37.30;;;;;;2255811;61;20407;-53
2021/08/10 07:09:30;0.00;0.00;0.62;0.00;0.00;0.62;3.77;1.83;;;24.30;37.50;;;;;;2255762;61;20614;-52
2021/08/10 07:12:16;0.00;0.00;0.62;0.00;0.00;0.62;2.57;1.70;;;24.20;37.40;;;;;;2256209;61;20388;-53
2021/08/10 07:15:04;0.00;0.00;0.62;0.00;0.00;0.62;3.20;2.40;;;24.20;37.30;;;;;;2255804;61;20403;-54
2021/08/10 07:17:50;0.00;0.00;0.62;0.00;0.00;0.62;3.43;1.83;;;24.20;37.40;;;;;;2253615;61;20360;-52
2021/08/10 07:20:41;0.00;0.00;0.62;0.00;0.00;0.62;2.83;1.70;;;24.20;37.40;;;;;;2255768;61;20399;-55
2021/08/10 07:23:29;0.00;0.00;0.62;0.00;0.00;0.62;3.13;2.40;;;24.20;37.50;;;;;;2255428;61;20629;-54
2021/08/10 07:26:13;0.00;0.00;0.62;0.00;0.00;0.62;4.10;1.90;;;24.20;37.70;;;;;;2253761;61;20487;-53
2021/08/10 07:29:01;0.00;0.00;0.62;0.00;0.00;0.62;3.30;2.20;;;24.20;37.80;;;;;;2255694;61;20384;-52
2021/08/10 07:31:48;0.00;0.00;0.62;0.00;0.00;0.62;4.30;2.70;;;24.20;37.80;;;;;;2252968;61;20379;-52
2021/08/10 07:34:37;0.00;0.00;0.62;0.00;0.00;0.62;3.47;2.20;;;24.20;38.10;;;;;;2256149;61;20360;-56
2021/08/10 07:37:21;0.00;0.00;0.62;0.00;0.00;0.62;5.47;2.10;;;24.20;38.20;;;;;;2253024;61;20411;-53
2021/08/10 07:40:10;0.00;0.00;0.62;0.00;0.00;0.62;2.30;1.90;;;24.20;38.30;;;;;;2253472;61;20793;-57
2021/08/10 07:42:55;0.00;0.00;0.62;0.00;0.00;0.62;2.70;2.13;;;24.10;38.20;;;;;;2252925;61;20379;-56
2021/08/10 07:45:39;0.00;0.00;0.62;0.00;0.00;0.62;3.20;2.33;;;24.20;38.50;;;;;;2255639;61;20395;-54
2021/08/10 07:48:31;0.00;0.00;0.62;0.00;0.00;0.62;3.33;2.30;;;24.10;38.50;;;;;;2253160;61;20380;-57
2021/08/10 07:51:16;0.00;0.00;0.62;0.00;0.00;0.62;3.00;1.93;;;24.10;38.60;;;;;;2255650;61;20395;-49
2021/08/10 07:54:01;0.00;0.00;0.62;0.00;0.00;0.62;3.23;1.83;;;24.20;38.80;;;;;;2255712;61;20364;-53
2021/08/10 07:56:47;0.00;0.00;0.62;0.00;0.00;0.62;5.67;2.43;;;24.20;38.70;;;;;;2256056;61;20379;-57
2021/08/10 07:59:32;0.00;0.00;0.62;0.00;0.00;0.62;3.23;2.27;;;24.10;38.70;;;;;;2255573;61;20392;-54
2021/08/10 08:02:17;0.00;0.00;0.62;0.00;0.00;0.62;3.83;2.30;;;24.10;38.70;;;;;;2253526;61;20404;-55
2021/08/10 08:05:02;0.00;0.00;0.62;0.00;0.00;0.62;3.40;2.30;;;24.10;38.70;;;;;;2255802;61;20645;-52
2021/08/10 08:07:46;0.00;0.00;0.62;0.00;0.00;0.62;4.30;2.77;;;24.10;38.60;;;;;;2255654;61;20360;-51
2021/08/10 08:10:31;0.00;0.00;0.62;0.00;0.00;0.62;5.77;3.00;;;24.10;38.60;;;;;;2255839;61;20384;-51
2021/08/10 08:13:17;0.00;0.00;0.62;0.00;0.00;0.62;4.40;2.80;;;24.10;38.60;;;;;;2255685;61;20442;-54
2021/08/10 08:16:02;0.00;0.00;0.62;0.00;0.00;0.62;3.50;2.80;;;24.10;38.50;;;;;;2255716;61;20590;-54
2021/08/10 08:18:47;0.00;0.00;0.62;0.00;0.00;0.62;4.43;2.60;;;24.10;38.50;;;;;;2255842;61;20437;-55
2021/08/10 08:21:36;0.00;0.00;0.62;0.00;0.00;0.62;4.33;2.90;;;24.10;38.50;;;;;;2255527;61;20423;-53
2021/08/10 08:24:21;0.00;0.00;0.62;0.00;0.00;0.62;6.43;3.20;;;24.10;38.50;;;;;;2255581;61;20407;-55
2021/08/10 08:27:07;0.00;0.00;0.62;0.00;0.00;0.62;5.40;3.47;;;24.10;38.50;;;;;;2255906;61;20363;-55
2021/08/10 08:29:53;0.00;0.00;0.62;0.00;0.00;0.62;4.97;3.57;;;24.10;38.50;;;;;;2253148;61;20725;-52
2021/08/10 08:32:38;0.00;0.00;0.62;0.00;0.00;0.62;4.17;3.20;;;24.10;38.50;;;;;;2255912;61;20392;-53
2021/08/10 08:35:22;0.00;0.00;0.62;0.00;0.00;0.62;4.27;2.60;;;24.10;38.40;;;;;;2255529;61;20368;-53
2021/08/10 08:38:07;0.00;0.00;0.62;0.00;0.00;0.62;5.33;3.30;;;24.10;38.40;;;;;;2255630;61;20586;-51
2021/08/10 08:40:53;0.00;0.00;0.62;0.00;0.00;0.62;6.03;3.27;;;24.20;38.60;;;;;;2255861;61;20431;-56
2021/08/10 08:43:39;0.00;0.00;0.62;0.00;0.00;0.62;6.63;4.70;;;24.20;38.50;;;;;;2255435;61;20408;-54
2021/08/10 08:46:27;0.00;0.00;0.62;0.00;0.00;0.62;5.40;4.20;;;24.20;38.40;;;;;;2255575;61;20364;-53
2021/08/10 08:49:15;0.00;0.00;0.62;0.00;0.00;0.62;5.53;4.37;;;24.20;38.20;;;;;;2255812;61;20367;-54
2021/08/10 08:52:00;0.00;0.00;0.62;0.00;0.00;0.62;6.00;4.53;;;24.20;38.00;;;;;;2255584;61;20599;-53
2021/08/10 08:54:46;0.00;0.00;0.62;0.00;0.00;0.62;6.63;4.87;;;24.20;37.80;;;;;;2255859;61;20368;-51
2021/08/10 08:57:30;0.00;0.00;0.62;0.00;0.00;0.62;7.03;4.60;;;24.30;37.70;;;;;;2255612;61;20356;-54
2021/08/10 09:00:17;0.00;0.00;0.62;0.00;0.00;0.62;7.77;5.67;;;24.30;37.60;;;;;;2255445;61;20407;-55
2021/08/10 09:03:05;0.00;0.00;0.62;0.00;0.00;0.62;6.27;4.80;;;24.30;37.40;;;;;;2255863;61;20367;-56
2021/08/10 09:05:50;0.00;0.00;0.62;0.00;0.00;0.62;6.40;5.20;;;24.30;37.30;;;;;;2255466;61;20360;-54
2021/08/10 09:08:41;0.00;0.00;0.62;0.00;0.00;0.62;7.20;5.33;;;24.30;37.30;;;;;;2255422;61;20375;-52
2021/08/10 09:11:30;0.00;0.00;0.62;0.00;0.00;0.62;5.97;4.90;;;24.30;37.10;;;;;;2255817;61;20423;-61
2021/08/10 09:14:16;0.00;0.00;0.62;0.00;0.00;0.62;7.17;5.00;;;24.30;36.90;;;;;;2255552;61;20363;-56
2021/08/10 09:17:05;0.00;0.00;0.62;0.00;0.00;0.62;7.40;5.77;;;24.40;36.90;;;;;;2253517;61;20427;-54
2021/08/10 09:19:57;0.00;0.00;0.62;0.00;0.00;0.62;7.90;5.50;;;24.40;36.70;;;;;;2255397;61;20761;-56
2021/08/10 09:22:42;0.00;0.00;0.62;0.00;0.00;0.62;8.67;6.77;;;24.40;36.50;;;;;;2255476;61;20363;-56
2021/08/10 09:25:54;0.00;0.00;0.62;0.00;0.00;0.62;7.37;5.47;;;24.40;36.20;;;;;;2253067;61;20399;-55
2021/08/10 09:28:40;0.00;0.00;0.62;0.00;0.00;0.62;10.27;6.67;;;24.40;36.00;;;;;;2255320;61;20359;-56
2021/08/10 09:31:32;0.00;0.00;0.62;0.00;0.00;0.62;8.13;6.57;;;24.40;36.00;;;;;;2255755;61;20456;-54
2021/08/10 09:34:20;0.00;0.00;0.62;0.00;0.00;0.62;7.90;6.20;;;24.40;35.90;;;;;;2253229;61;20680;-51
2021/08/10 09:37:13;0.00;0.00;0.62;0.00;0.00;0.62;10.20;6.00;;;24.50;35.80;;;;;;2255530;61;20700;-51
2021/08/10 09:39:58;0.00;0.00;0.62;0.00;0.00;0.62;8.00;6.40;;;24.50;35.70;;;;;;2255608;61;20500;-52
2021/08/10 09:42:43;0.00;0.00;0.62;0.00;0.00;0.62;7.83;6.63;;;24.50;35.60;;;;;;2255503;61;20367;-49
2021/08/10 09:45:27;0.00;0.00;0.62;0.00;0.00;0.62;7.40;6.00;;;24.50;35.40;;;;;;2255477;61;20392;-50
2021/08/10 09:48:13;0.00;0.00;0.62;0.00;0.00;0.62;11.00;6.90;;;24.50;35.20;;;;;;2253791;61;20382;-55
2021/08/10 09:51:06;0.00;0.00;0.62;0.00;0.00;0.62;7.77;6.10;;;24.50;34.80;;;;;;2255851;61;20611;-49
2021/08/10 09:53:57;0.00;0.00;0.62;0.00;0.00;0.62;8.00;5.80;;;24.50;34.70;;;;;;2256562;61;20383;-51
2021/08/10 09:56:49;0.00;0.00;0.62;0.00;0.00;0.62;6.97;5.70;;;24.60;34.70;;;;;;2254213;61;20839;-52
2021/08/10 09:59:41;0.00;0.00;0.62;0.00;0.00;0.62;8.70;5.83;;;24.50;34.70;;;;;;2255973;61;20720;-55
2021/08/10 10:02:26;0.00;0.00;0.62;0.00;0.00;0.62;7.47;5.67;;;24.60;34.90;;;;;;2256541;61;20724;-52
2021/08/10 10:05:11;0.00;0.00;0.62;0.00;0.00;0.62;5.47;4.57;;;24.60;35.00;;;;;;2254107;61;20363;-51
2021/08/10 10:08:14;0.00;0.00;0.62;0.00;0.00;0.62;11.23;6.07;;;24.60;35.10;;;;;;2256200;61;20439;-56
2021/08/10 10:11:01;0.00;0.00;0.62;0.00;0.00;0.62;5.23;4.07;;;24.60;35.10;;;;;;2256465;61;20395;-51
2021/08/10 10:13:51;0.00;0.00;0.62;0.00;0.00;0.62;7.37;5.00;;;24.60;35.20;;;;;;2256109;61;20472;-54
2021/08/10 10:16:37;0.00;0.00;0.62;0.00;0.00;0.62;6.97;4.60;;;24.60;35.30;;;;;;2254108;61;20708;-53
2021/08/10 10:19:23;0.00;0.00;0.62;0.00;0.00;0.62;5.03;3.90;;;24.70;35.50;;;;;;2253947;61;20363;-51
2021/08/10 10:22:17;0.00;0.00;0.62;0.00;0.00;0.62;5.23;4.30;;;24.70;36.20;;;;;;2253705;61;20415;-52
2021/08/10 10:25:03;0.00;0.00;0.62;0.00;0.00;0.62;7.13;4.77;;;24.70;35.50;;;;;;2254026;61;20764;-56
2021/08/10 10:27:49;0.00;0.00;0.62;0.00;0.00;0.62;6.60;4.67;;;24.70;35.40;;;;;;2253999;61;20481;-55
2021/08/10 10:30:34;0.00;0.00;0.62;0.00;0.00;0.62;7.00;4.53;;;24.80;35.50;;;;;;2253941;61;20384;-56
2021/08/10 10:33:19;0.00;0.00;0.62;0.00;0.00;0.62;5.37;4.30;;;24.80;35.40;;;;;;2254016;61;20422;-51
2021/08/10 10:36:05;0.00;0.00;0.62;0.00;0.00;0.62;5.33;4.13;;;24.80;35.40;;;;;;2253688;61;20579;-55
2021/08/10 10:38:53;0.00;0.00;0.62;0.00;0.00;0.62;6.90;4.10;;;24.80;35.40;;;;;;2253945;61;20708;-58
2021/08/10 10:41:39;0.00;0.00;0.62;0.00;0.00;0.62;6.20;4.33;;;24.90;35.60;;;;;;2253849;61;20668;-57
2021/08/10 10:44:43;0.00;0.00;0.62;0.00;0.00;0.62;5.17;4.10;;;24.90;35.70;;;;;;2253637;61;20356;-58
2021/08/10 10:47:38;0.00;0.00;0.62;0.00;0.00;0.62;5.00;3.63;;;24.90;35.60;;;;;;2253948;61;20607;-57
2021/08/10 10:50:22;0.00;0.00;0.62;0.00;0.00;0.62;4.60;3.47;;;24.90;35.40;;;;;;2253551;61;20403;-56
2021/08/10 10:53:08;0.00;0.00;0.62;0.00;0.00;0.62;5.13;4.60;;;25.00;35.40;;;;;;2254019;61;20407;-55
2021/08/10 10:55:53;0.00;0.00;0.62;0.00;0.00;0.62;4.67;3.73;;;25.00;35.50;;;;;;2253887;61;20363;-56
2021/08/10 10:58:37;0.00;0.00;0.62;0.00;0.00;0.62;5.53;4.50;;;25.00;35.50;;;;;;2253585;61;20380;-53
2021/08/10 11:01:30;0.00;0.00;0.62;0.00;0.00;0.62;6.37;3.63;;;25.10;35.60;;;;;;2253884;61;20392;-55